Time;durP1;ratioP1;P1;durP2;ratioP2;P2;SDS_P1;SDS_P2;PMS_P1;PMS_P2;Temp;Humidity;BMP_temperature;BMP_pressure;BME280_temperature;BME280_humidity;BME280_pressure;Samples;Min_cycle;Max_cycle;Signal;HPM_P1;HPM_P2
2023/08/23 00:00:22;;;;;;;2.63;0.93;;;;;;;18.71;100.00;100859.16;5026153;28;20038;-73
2023/08/23 00:03:08;;;;;;;2.38;0.95;;;;;;;18.70;100.00;100863.16;5039222;28;20034;-73
2023/08/23 00:05:53;;;;;;;2.53;0.95;;;;;;;18.65;100.00;100866.16;5005031;28;20175;-73
2023/08/23 00:08:39;;;;;;;5.65;0.95;;;;;;;18.63;100.00;100872.09;5018259;28;20041;-73
2023/08/23 00:11:25;;;;;;;2.38;0.77;;;;;;;18.57;100.00;100861.41;5037491;28;20029;-73
2023/08/23 00:14:11;;;;;;;4.28;0.80;;;;;;;18.58;100.00;100863.03;5018717;28;20042;-73
2023/08/23 00:16:57;;;;;;;4.00;0.80;;;;;;;18.51;100.00;100867.22;5024982;28;20045;-72
2023/08/23 00:19:43;;;;;;;3.47;0.82;;;;;;;18.51;100.00;100864.41;5011959;28;20037;-73
2023/08/23 00:22:29;;;;;;;2.25;0.80;;;;;;;18.52;100.00;100859.59;5037850;28;20406;-73
2023/08/23 00:25:14;;;;;;;3.00;0.90;;;;;;;18.50;100.00;100857.13;5025343;28;20033;-72
2023/08/23 00:28:00;;;;;;;3.60;0.80;;;;;;;18.43;100.00;100859.63;5025751;28;20030;-73
2023/08/23 00:30:49;;;;;;;2.42;1.00;;;;;;;18.43;100.00;100858.81;5039048;28;20026;-73
2023/08/23 00:33:35;;;;;;;1.55;0.80;;;;;;;18.38;100.00;100850.56;5039254;28;20513;-73
2023/08/23 00:36:21;;;;;;;2.72;0.80;;;;;;;18.36;100.00;100848.13;5024725;28;20069;-73
2023/08/23 00:39:06;;;;;;;1.85;0.80;;;;;;;18.33;100.00;100845.13;5025197;28;20034;-73
2023/08/23 00:41:52;;;;;;;3.08;0.82;;;;;;;18.31;100.00;100849.13;5025202;28;20029;-73
2023/08/23 00:44:38;;;;;;;2.65;0.85;;;;;;;18.29;100.00;100845.00;5037397;28;20037;-73
2023/08/23 00:47:23;;;;;;;2.13;0.93;;;;;;;18.26;100.00;100854.94;5025064;28;20035;-73
2023/08/23 00:50:09;;;;;;;4.78;0.95;;;;;;;18.23;100.00;100847.19;5024549;28;20381;-73
2023/08/23 00:52:55;;;;;;;2.85;0.90;;;;;;;18.20;100.00;100850.66;5011607;28;20493;-73
2023/08/23 00:55:41;;;;;;;3.92;0.90;;;;;;;18.15;100.00;100844.41;5007185;28;20045;-73
2023/08/23 00:58:27;;;;;;;1.52;0.70;;;;;;;18.12;100.00;100836.66;5019144;28;20033;-73
2023/08/23 01:01:12;;;;;;;2.78;0.77;;;;;;;18.11;100.00;100841.44;5024817;28;20132;-73
2023/08/23 01:03:58;;;;;;;4.38;1.15;;;;;;;18.06;100.00;100839.66;5005215;28;20034;-73
2023/08/23 01:06:51;;;;;;;3.90;0.90;;;;;;;18.03;100.00;100837.50;5036337;28;20038;-73
2023/08/23 01:09:41;;;;;;;3.83;0.80;;;;;;;18.01;100.00;100834.19;5025237;28;20120;-73
2023/08/23 01:12:47;;;;;;;1.88;0.70;;;;;;;17.99;100.00;100841.31;5037074;28;20034;-73
2023/08/23 01:15:33;;;;;;;2.72;0.90;;;;;;;17.97;100.00;100847.28;5018576;28;20036;-73
2023/08/23 01:18:19;;;;;;;1.05;0.80;;;;;;;17.92;100.00;100838.22;5012135;28;20417;-73
2023/08/23 01:21:05;;;;;;;4.05;0.95;;;;;;;17.86;100.00;100838.41;5037379;28;20036;-72
2023/08/23 01:23:50;;;;;;;4.25;0.90;;;;;;;17.85;100.00;100841.53;5024187;28;20043;-73
2023/08/23 01:26:39;;;;;;;5.30;1.10;;;;;;;17.81;100.00;100835.75;5024156;28;20083;-73
2023/08/23 01:29:24;;;;;;;3.90;1.13;;;;;;;17.75;100.00;100828.66;5010017;28;20131;-72
2023/08/23 01:32:39;;;;;;;3.42;0.90;;;;;;;17.75;100.00;100830.63;5038089;28;20036;-73
2023/08/23 01:35:33;;;;;;;1.73;1.00;;;;;;;17.76;100.00;100821.03;5037620;28;20033;-73
2023/08/23 01:38:19;;;;;;;1.92;0.80;;;;;;;17.74;100.00;100818.56;5010817;28;20037;-73
2023/08/23 01:41:05;;;;;;;1.85;1.02;;;;;;;17.73;100.00;100821.72;5024029;28;20033;-73
2023/08/23 01:43:51;;;;;;;4.93;1.23;;;;;;;17.71;100.00;100824.03;5010377;28;20063;-73
2023/08/23 01:46:37;;;;;;;2.35;1.00;;;;;;;17.70;100.00;100822.38;5037124;28;20029;-73
2023/08/23 01:49:23;;;;;;;2.97;0.82;;;;;;;17.67;100.00;100818.25;5036663;28;20079;-73
2023/08/23 01:52:09;;;;;;;3.85;1.08;;;;;;;17.63;100.00;100820.94;5010245;28;20095;-73
2023/08/23 01:54:55;;;;;;;4.63;1.00;;;;;;;17.65;100.00;100809.34;5023517;28;20037;-73
2023/08/23 01:57:41;;;;;;;2.72;1.27;;;;;;;17.60;100.00;100807.53;5035923;28;20053;-73
2023/08/23 02:00:27;;;;;;;3.17;0.90;;;;;;;17.57;100.00;100808.19;5036072;28;20096;-73
2023/08/23 02:03:13;;;;;;;2.28;0.90;;;;;;;17.55;100.00;100810.53;5036528;28;20037;-73
2023/08/23 02:05:59;;;;;;;4.63;1.10;;;;;;;17.53;100.00;100817.63;5009856;28;20478;-73
2023/08/23 02:08:44;;;;;;;2.00;0.95;;;;;;;17.52;100.00;100813.16;5037532;28;20435;-73
2023/08/23 02:11:32;;;;;;;2.35;1.23;;;;;;;17.49;100.00;100811.03;5010207;28;20509;-73
2023/08/23 02:14:18;;;;;;;2.53;1.25;;;;;;;17.45;100.00;100802.44;5023796;28;20167;-73
2023/08/23 02:17:04;;;;;;;1.90;1.02;;;;;;;17.47;100.00;100804.91;5009203;28;20466;-73
2023/08/23 02:19:49;;;;;;;3.47;1.15;;;;;;;17.43;100.00;100808.38;5023013;28;20029;-73
2023/08/23 02:22:35;;;;;;;3.08;1.00;;;;;;;17.43;100.00;100797.16;5023572;28;20038;-73
2023/08/23 02:25:21;;;;;;;3.53;1.05;;;;;;;17.44;100.00;100792.41;5023143;28;20041;-73
2023/08/23 02:28:07;;;;;;;4.07;1.30;;;;;;;17.45;100.00;100785.59;5009134;28;20025;-73
2023/08/23 02:30:52;;;;;;;1.88;1.20;;;;;;;17.42;100.00;100786.28;5023356;28;20031;-73
2023/08/23 02:33:38;;;;;;;3.45;0.93;;;;;;;17.41;100.00;100782.66;5009747;28;20037;-73
2023/08/23 02:36:25;;;;;;;2.70;1.35;;;;;;;17.42;100.00;100781.47;5023209;28;20059;-73
2023/08/23 02:39:11;;;;;;;2.75;1.00;;;;;;;17.39;100.00;100782.16;5035358;28;20041;-73
2023/08/23 02:41:57;;;;;;;3.13;1.20;;;;;;;17.39;100.00;100772.91;5009694;28;20497;-73
2023/08/23 02:44:42;;;;;;;2.88;1.27;;;;;;;17.38;100.00;100774.06;5009515;28;20034;-72
2023/08/23 02:47:28;;;;;;;4.53;1.20;;;;;;;17.35;100.00;100780.34;5009668;28;20026;-73
2023/08/23 02:50:14;;;;;;;3.08;1.30;;;;;;;17.31;100.00;100782.19;5035320;28;20037;-73
2023/08/23 02:53:00;;;;;;;4.00;1.50;;;;;;;17.31;100.00;100779.38;5023181;28;20033;-73
2023/08/23 02:55:45;;;;;;;2.40;1.10;;;;;;;17.31;100.00;100773.75;5020167;28;20537;-73
2023/08/23 02:58:31;;;;;;;4.15;1.40;;;;;;;17.30;100.00;100772.09;5006440;28;20045;-72
2023/08/23 03:01:17;;;;;;;2.55;1.30;;;;;;;17.29;100.00;100776.06;5010301;28;20038;-73
2023/08/23 03:04:03;;;;;;;3.38;1.38;;;;;;;17.27;100.00;100775.56;5009400;28;20417;-73
2023/08/23 03:06:48;;;;;;;3.03;1.35;;;;;;;17.26;100.00;100780.34;5022553;28;20099;-73
2023/08/23 03:09:34;;;;;;;2.95;1.27;;;;;;;17.27;100.00;100783.97;5020356;28;20432;-72
2023/08/23 03:12:20;;;;;;;3.33;1.40;;;;;;;17.26;100.00;100780.34;5014969;28;20041;-73
2023/08/23 03:15:06;;;;;;;4.22;1.70;;;;;;;17.24;100.00;100787.47;5022998;28;20037;-72
2023/08/23 03:17:52;;;;;;;6.05;1.55;;;;;;;17.19;100.00;100786.47;5022565;28;20076;-73
2023/08/23 03:20:38;;;;;;;4.25;1.60;;;;;;;17.24;100.00;100784.66;5021806;28;20040;-72
2023/08/23 03:23:24;;;;;;;3.25;1.80;;;;;;;17.17;100.00;100782.34;5009579;28;20033;-73
2023/08/23 03:26:09;;;;;;;7.18;2.08;;;;;;;17.13;100.00;100790.63;5036319;28;20037;-73
2023/08/23 03:28:55;;;;;;;3.92;1.75;;;;;;;17.13;100.00;100781.34;5021568;28;20029;-73
2023/08/23 03:31:41;;;;;;;4.60;1.98;;;;;;;17.13;100.00;100781.34;5035355;28;20175;-73
2023/08/23 03:34:27;;;;;;;4.63;1.88;;;;;;;17.14;100.00;100780.22;5036210;28;20030;-73
2023/08/23 03:37:12;;;;;;;5.22;1.80;;;;;;;17.14;100.00;100772.63;5034691;28;20059;-73
2023/08/23 03:39:58;;;;;;;4.10;1.80;;;;;;;17.12;100.00;100771.31;5023840;28;20068;-73
2023/08/23 03:42:44;;;;;;;4.07;1.73;;;;;;;17.13;100.00;100785.00;5039109;28;20615;-73
2023/08/23 03:45:30;;;;;;;5.68;1.90;;;;;;;17.11;100.00;100781.72;5026218;28;20033;-73
2023/08/23 03:48:16;;;;;;;5.15;2.78;;;;;;;17.06;100.00;100776.25;5012240;28;20036;-73
2023/08/23 03:51:02;;;;;;;8.25;2.05;;;;;;;17.12;100.00;100780.53;5025352;28;20045;-73
2023/08/23 03:53:48;;;;;;;3.20;2.15;;;;;;;17.10;100.00;100784.81;5026388;28;20040;-73
2023/08/23 03:56:34;;;;;;;6.80;2.05;;;;;;;17.07;100.00;100780.69;5022475;28;20405;-73
2023/08/23 03:59:19;;;;;;;3.72;2.10;;;;;;;17.07;100.00;100772.28;5019537;28;20030;-73
2023/08/23 04:02:05;;;;;;;3.92;1.80;;;;;;;17.07;100.00;100772.28;5011939;28;20033;-73
2023/08/23 04:04:51;;;;;;;4.43;2.03;;;;;;;17.10;100.00;100768.81;5025262;28;20044;-73
2023/08/23 04:07:37;;;;;;;2.70;1.65;;;;;;;17.06;100.00;100759.41;5025924;28;20038;-72
2023/08/23 04:10:23;;;;;;;3.25;1.80;;;;;;;17.06;100.00;100753.00;5016052;28;20117;-73
2023/08/23 04:13:09;;;;;;;6.03;2.10;;;;;;;17.03;100.00;100751.66;5023888;28;20037;-73
2023/08/23 04:15:54;;;;;;;4.40;2.20;;;;;;;17.04;100.00;100761.72;5025732;28;20375;-73
2023/08/23 04:18:40;;;;;;;1.83;1.70;;;;;;;17.04;100.00;100758.09;5012063;28;20219;-73
2023/08/23 04:21:26;;;;;;;3.00;1.45;;;;;;;17.03;100.00;100762.06;5037768;28;20450;-73
2023/08/23 04:24:12;;;;;;;3.22;1.80;;;;;;;17.01;100.00;100767.19;5024699;28;20045;-72
2023/08/23 04:26:58;;;;;;;3.80;1.80;;;;;;;16.98;100.00;100766.69;5038281;28;20033;-73
2023/08/23 04:29:43;;;;;;;4.00;2.15;;;;;;;16.98;100.00;100761.06;5011837;28;20030;-73
2023/08/23 04:32:29;;;;;;;5.10;1.83;;;;;;;16.96;100.00;100756.94;5025458;28;20033;-72
2023/08/23 04:35:15;;;;;;;3.25;1.85;;;;;;;16.93;100.00;100752.00;5025279;28;20037;-73
2023/08/23 04:38:01;;;;;;;6.75;1.90;;;;;;;16.92;100.00;100750.38;5024689;28;20107;-73
2023/08/23 04:40:46;;;;;;;4.72;2.08;;;;;;;16.91;100.00;100751.50;5024962;28;20536;-73
2023/08/23 04:43:33;;;;;;;6.57;1.80;;;;;;;16.90;100.00;100749.88;5037179;28;20033;-73
2023/08/23 04:46:18;;;;;;;4.78;1.90;;;;;;;16.89;100.00;100742.63;5038411;28;20064;-73
2023/08/23 04:49:04;;;;;;;3.72;1.80;;;;;;;16.85;100.00;100739.63;5011215;28;20120;-73
2023/08/23 04:51:50;;;;;;;4.68;1.75;;;;;;;16.84;100.00;100742.78;5037058;28;20107;-73
2023/08/23 04:54:36;;;;;;;4.82;1.70;;;;;;;16.85;100.00;100741.59;5036875;28;20409;-73
2023/08/23 04:57:22;;;;;;;4.85;1.60;;;;;;;16.83;100.00;100744.75;5008909;28;20034;-73
2023/08/23 05:00:08;;;;;;;5.10;2.08;;;;;;;16.83;100.00;100749.56;5006979;28;20037;-73
2023/08/23 05:02:54;;;;;;;4.60;2.15;;;;;;;16.85;100.00;100750.03;5005752;28;20034;-73
2023/08/23 05:05:40;;;;;;;4.47;1.63;;;;;;;16.80;100.00;100741.78;5025008;28;20029;-73
2023/08/23 05:08:27;;;;;;;6.20;2.17;;;;;;;16.75;100.00;100742.75;5024917;28;20052;-73
2023/08/23 05:11:13;;;;;;;5.53;2.08;;;;;;;16.77;100.00;100739.63;5024508;28;20033;-73
2023/08/23 05:13:59;;;;;;;5.38;2.03;;;;;;;16.75;100.00;100745.56;5025605;28;20040;-73
2023/08/23 05:16:44;;;;;;;3.30;1.80;;;;;;;16.74;100.00;100735.47;5038359;28;20125;-73
2023/08/23 05:19:30;;;;;;;3.88;1.80;;;;;;;16.72;100.00;100727.41;5022279;28;20401;-73
2023/08/23 05:22:16;;;;;;;5.20;1.70;;;;;;;16.73;100.00;100723.44;5038372;28;20084;-73
2023/08/23 05:25:02;;;;;;;4.30;1.77;;;;;;;16.73;100.00;100723.44;5036910;28;20113;-73
2023/08/23 05:27:47;;;;;;;5.95;1.75;;;;;;;16.72;100.00;100730.22;5010720;28;20025;-73
2023/08/23 05:30:34;;;;;;;4.75;1.77;;;;;;;16.70;100.00;100732.50;5036935;28;20029;-73
2023/08/23 05:33:20;;;;;;;3.88;2.15;;;;;;;16.75;100.00;100731.53;5024523;28;20045;-73
2023/08/23 05:36:06;;;;;;;5.03;2.13;;;;;;;16.74;100.00;100719.50;5036388;28;20091;-73
2023/08/23 05:38:52;;;;;;;4.65;1.63;;;;;;;16.75;100.00;100721.13;5024394;28;20041;-73
2023/08/23 05:41:37;;;;;;;4.28;1.80;;;;;;;16.77;100.00;100715.25;5024402;28;20041;-72
2023/08/23 05:44:23;;;;;;;3.45;1.95;;;;;;;16.80;100.00;100705.31;5024173;28;20041;-73
2023/08/23 05:47:09;;;;;;;5.00;1.98;;;;;;;16.83;100.00;100705.50;5024612;28;20112;-73
2023/08/23 05:49:55;;;;;;;4.28;2.25;;;;;;;16.81;100.00;100710.59;5023947;28;20041;-73
2023/08/23 05:52:40;;;;;;;4.47;2.10;;;;;;;16.85;100.00;100710.75;5036713;28;20485;-73
2023/08/23 05:55:26;;;;;;;2.30;1.85;;;;;;;16.89;100.00;100703.34;5022356;28;20040;-73
2023/08/23 05:58:12;;;;;;;4.70;1.70;;;;;;;16.91;100.00;100707.47;5018954;28;20038;-73
2023/08/23 06:00:58;;;;;;;4.78;2.08;;;;;;;16.92;100.00;100703.50;5023829;28;20037;-73
2023/08/23 06:03:43;;;;;;;4.50;2.05;;;;;;;16.96;100.00;100709.25;5023931;28;20037;-73
2023/08/23 06:06:29;;;;;;;4.43;2.42;;;;;;;16.97;100.00;100716.53;5023791;28;20038;-73
2023/08/23 06:09:17;;;;;;;3.90;1.73;;;;;;;17.01;100.00;100723.13;5023428;28;20044;-73
2023/08/23 06:12:03;;;;;;;4.90;1.85;;;;;;;17.04;100.00;100725.25;5013462;28;20038;-73
2023/08/23 06:14:49;;;;;;;4.28;2.22;;;;;;;17.07;100.00;100724.59;5008809;28;20037;-73
2023/08/23 06:17:34;;;;;;;4.45;2.42;;;;;;;17.12;100.00;100721.59;5023321;28;20042;-73
2023/08/23 06:20:20;;;;;;;4.25;2.00;;;;;;;17.16;100.00;100725.41;5035539;28;20041;-73
2023/08/23 06:23:07;;;;;;;3.10;1.70;;;;;;;17.22;100.00;100730.81;5023694;28;20041;-73
2023/08/23 06:25:59;;;;;;;3.30;1.70;;;;;;;17.29;100.00;100734.78;5023237;28;20040;-73
2023/08/23 06:28:45;;;;;;;5.60;2.83;;;;;;;17.35;100.00;100746.66;5009984;28;20040;-73
2023/08/23 06:31:30;;;;;;;5.50;1.80;;;;;;;17.40;100.00;100746.47;5022797;28;20324;-73
2023/08/23 06:34:16;;;;;;;2.70;1.90;;;;;;;17.46;100.00;100744.31;5023382;28;20025;-72
2023/08/23 06:37:02;;;;;;;4.47;2.85;;;;;;;17.50;100.00;100746.13;5022797;28;20116;-73
2023/08/23 06:39:51;;;;;;;6.90;2.92;;;;;;;17.58;100.00;100752.88;5009258;28;20112;-72
2023/08/23 06:42:37;;;;;;;6.20;3.10;;;;;;;17.64;100.00;100754.34;5023941;28;20044;-72
2023/08/23 06:45:23;;;;;;;3.58;2.17;;;;;;;17.74;100.00;100751.13;5023251;28;20554;-73
2023/08/23 06:48:09;;;;;;;6.57;3.00;;;;;;;17.81;100.00;100750.66;5036990;28;20041;-72
2023/08/23 06:50:55;;;;;;;4.30;2.13;;;;;;;17.89;100.00;100740.56;5023460;28;20041;-72
2023/08/23 06:53:41;;;;;;;4.10;2.10;;;;;;;17.97;100.00;100742.47;5035052;28;20405;-73
2023/08/23 06:56:29;;;;;;;4.28;1.83;;;;;;;18.04;100.00;100765.25;5021946;28;20033;-73
2023/08/23 06:59:14;;;;;;;4.38;2.22;;;;;;;18.09;100.00;100782.75;5018624;28;20042;-73
2023/08/23 07:02:00;;;;;;;2.92;2.20;;;;;;;18.19;100.00;100777.91;5022634;28;20409;-73
2023/08/23 07:04:46;;;;;;;4.88;2.60;;;;;;;18.20;100.00;100773.94;5005978;28;20066;-72
2023/08/23 07:07:32;;;;;;;5.40;2.85;;;;;;;18.18;100.00;100753.78;5035180;28;20034;-73
2023/08/23 07:10:18;;;;;;;5.45;2.65;;;;;;;18.21;100.00;100755.91;5022746;28;20543;-73
2023/08/23 07:13:04;;;;;;;6.25;2.10;;;;;;;18.26;100.00;100769.78;5023155;28;20038;-73
2023/08/23 07:15:49;;;;;;;4.68;1.40;;;;;;;18.36;100.00;100793.84;5038867;28;20029;-72
2023/08/23 07:18:35;;;;;;;4.28;2.00;;;;;;;18.41;100.00;100800.09;5039402;28;20041;-73
2023/08/23 07:21:21;;;;;;;6.22;3.05;;;;;;;18.42;100.00;100790.50;5026902;28;20076;-73
2023/08/23 07:24:07;;;;;;;5.53;2.00;;;;;;;18.47;100.00;100810.00;5008741;28;20144;-73
2023/08/23 07:26:55;;;;;;;3.80;1.60;;;;;;;18.56;100.00;100824.00;5019643;28;20042;-73
2023/08/23 07:29:40;;;;;;;4.93;1.70;;;;;;;18.62;100.00;100819.84;5020248;28;20045;-73
2023/08/23 07:32:30;;;;;;;4.95;1.75;;;;;;;18.68;100.00;100835.34;5010441;28;20037;-72
2023/08/23 07:35:16;;;;;;;2.80;1.30;;;;;;;18.77;100.00;100834.50;5022335;28;20048;-73
2023/08/23 07:38:02;;;;;;;3.25;1.30;;;;;;;18.86;100.00;100823.97;5028830;28;20038;-73
2023/08/23 07:40:48;;;;;;;2.75;1.50;;;;;;;18.94;100.00;100815.50;5009070;28;20449;-73
2023/08/23 07:43:33;;;;;;;2.55;1.55;;;;;;;19.00;100.00;100813.31;5020695;28;20032;-73
2023/08/23 07:46:19;;;;;;;4.55;1.80;;;;;;;19.09;100.00;100804.78;5020217;28;20030;-73
2023/08/23 07:49:05;;;;;;;3.63;1.52;;;;;;;19.12;100.00;100804.09;5026094;28;20045;-73
2023/08/23 07:51:51;;;;;;;3.33;1.55;;;;;;;19.21;100.00;100799.19;5026458;28;20038;-73
2023/08/23 07:54:36;;;;;;;4.05;1.70;;;;;;;19.30;100.00;100797.09;5033065;28;20039;-72
2023/08/23 07:57:22;;;;;;;4.82;1.92;;;;;;;19.41;100.00;100809.59;5013871;28;20041;-73
2023/08/23 08:00:09;;;;;;;5.13;1.40;;;;;;;19.47;100.00;100810.19;5011877;28;20482;-73
2023/08/23 08:02:55;;;;;;;6.45;1.70;;;;;;;19.59;100.00;100809.44;5012120;28;20071;-73
2023/08/23 08:05:41;;;;;;;5.00;1.42;;;;;;;19.66;100.00;100806.88;5011788;28;20397;-73
2023/08/23 08:08:27;;;;;;;4.03;1.92;;;;;;;19.72;100.00;100799.84;5024881;28;20047;-73
2023/08/23 08:11:14;;;;;;;4.13;1.38;;;;;;;19.85;100.00;100804.34;5023806;28;20081;-73
2023/08/23 08:14:00;;;;;;;2.30;1.30;;;;;;;19.94;100.00;100803.41;5025963;28;20114;-73
2023/08/23 08:16:45;;;;;;;1.77;1.58;;;;;;;20.03;100.00;100801.28;5011527;28;20043;-73
2023/08/23 08:19:31;;;;;;;2.30;1.42;;;;;;;20.11;100.00;100800.34;5039570;28;20125;-73
2023/08/23 08:22:17;;;;;;;3.75;1.38;;;;;;;20.23;100.00;100803.19;5038543;28;20041;-73
2023/08/23 08:25:04;;;;;;;3.50;1.40;;;;;;;20.33;100.00;100801.06;5011776;28;20052;-73
2023/08/23 08:27:50;;;;;;;2.00;1.35;;;;;;;20.46;100.00;100783.78;5024818;28;20033;-72
2023/08/23 08:30:36;;;;;;;7.97;1.90;;;;;;;20.52;100.00;100778.72;5013563;28;20109;-73
2023/08/23 08:33:22;;;;;;;3.80;1.50;;;;;;;20.62;100.00;100769.81;5038730;28;20083;-73
2023/08/23 08:36:07;;;;;;;3.70;1.30;;;;;;;20.68;100.00;100771.19;5005088;28;20131;-73
2023/08/23 08:38:53;;;;;;;4.18;1.48;;;;;;;20.82;100.00;100772.81;5007002;28;20142;-73
2023/08/23 08:41:41;;;;;;;3.72;1.30;;;;;;;20.86;100.00;100763.25;5038127;28;20033;-73
2023/08/23 08:44:26;;;;;;;3.45;1.40;;;;;;;20.94;100.00;100772.78;5005555;28;20037;-73
2023/08/23 08:47:12;;;;;;;2.92;1.60;;;;;;;21.03;100.00;100769.78;5022122;28;20104;-73
2023/08/23 08:49:58;;;;;;;5.60;1.50;;;;;;;21.18;100.00;100752.91;5037895;28;20033;-73
2023/08/23 08:52:50;;;;;;;3.50;1.40;;;;;;;21.31;100.00;100758.47;5025517;28;20038;-73
2023/08/23 08:55:36;;;;;;;5.90;1.80;;;;;;;21.46;100.00;100752.09;5025052;28;20034;-73
2023/08/23 08:58:22;;;;;;;4.30;1.63;;;;;;;21.63;100.00;100733.97;5025122;28;20101;-73
2023/08/23 09:01:07;;;;;;;4.13;1.30;;;;;;;21.86;100.00;100734.97;5010769;28;20029;-73
2023/08/23 09:03:53;;;;;;;5.82;1.60;;;;;;;22.05;100.00;100731.38;5025094;28;20033;-73
2023/08/23 09:06:40;;;;;;;2.78;1.60;;;;;;;22.27;100.00;100717.78;5010665;28;20053;-73
2023/08/23 09:09:25;;;;;;;5.97;1.50;;;;;;;22.48;100.00;100701.31;5009342;28;20072;-73
2023/08/23 09:12:11;;;;;;;5.22;1.70;;;;;;;22.68;100.00;100681.50;5015930;28;20033;-73
2023/08/23 09:15:04;;;;;;;4.90;1.30;;;;;;;22.92;100.00;100675.50;5036995;28;20033;-73
2023/08/23 09:17:54;;;;;;;6.82;1.83;;;;;;;23.09;100.00;100673.44;5024900;28;20054;-73
2023/08/23 09:20:42;;;;;;;1.65;1.15;;;;;;;23.27;100.00;100673.78;5025008;28;20033;-73
2023/08/23 09:23:34;;;;;;;6.22;1.48;;;;;;;23.37;100.00;100662.66;5024120;28;20172;-73
2023/08/23 09:26:20;;;;;;;3.53;1.30;;;;;;;23.52;100.00;100668.56;5024969;28;20045;-73
2023/08/23 09:29:07;;;;;;;3.72;1.45;;;;;;;23.64;100.00;100660.66;5024474;28;20265;-73
2023/08/23 09:31:52;;;;;;;3.40;1.42;;;;;;;23.80;100.00;100654.09;5022123;28;20033;-73
2023/08/23 09:34:38;;;;;;;9.65;1.55;;;;;;;23.86;100.00;100656.19;5024245;28;20036;-73
2023/08/23 09:37:24;;;;;;;5.40;1.42;;;;;;;23.98;100.00;100640.97;5010182;28;20077;-73
2023/08/23 09:40:17;;;;;;;4.38;1.40;;;;;;;24.08;100.00;100656.53;5023891;28;20478;-73
2023/08/23 09:43:03;;;;;;;4.35;1.60;;;;;;;24.17;100.00;100642.06;5010750;28;20044;-73
2023/08/23 09:45:49;;;;;;;5.60;1.52;;;;;;;24.31;100.00;100631.72;5037458;28;20416;-73
2023/08/23 09:48:35;;;;;;;4.38;1.98;;;;;;;24.36;100.00;100643.94;5023045;28;20061;-73
2023/08/23 09:51:24;;;;;;;4.03;1.58;;;;;;;24.45;100.00;100645.31;5010558;28;20382;-73
2023/08/23 09:54:14;;;;;;;6.88;1.77;;;;;;;24.56;100.00;100658.84;5035927;28;20025;-73
2023/08/23 09:56:59;;;;;;;8.80;1.80;;;;;;;24.59;100.00;100667.41;5003784;28;20033;-73
2023/08/23 09:59:45;;;;;;;4.72;1.60;;;;;;;24.73;100.00;100669.59;5017517;28;20129;-73
2023/08/23 10:02:31;;;;;;;3.90;1.90;;;;;;;24.82;100.00;100667.25;5004244;28;20048;-73
2023/08/23 10:05:17;;;;;;;5.53;1.73;;;;;;;24.84;100.00;100656.34;5010750;28;20073;-73
2023/08/23 10:08:03;;;;;;;4.15;1.60;;;;;;;24.98;100.00;100658.53;5010097;28;20033;-73
2023/08/23 10:10:53;;;;;;;4.10;1.63;;;;;;;25.15;100.00;100660.75;5011663;28;20029;-73
2023/08/23 10:13:39;;;;;;;4.32;1.48;;;;;;;25.26;100.00;100657.22;5008958;28;20034;-73
2023/08/23 10:16:25;;;;;;;3.88;1.40;;;;;;;25.46;100.00;100666.34;5020950;28;20033;-73
2023/08/23 10:19:10;;;;;;;3.25;1.40;;;;;;;25.60;100.00;100669.31;5023658;28;20030;-73
2023/08/23 10:21:57;;;;;;;3.45;1.70;;;;;;;25.72;100.00;100668.22;5009896;28;20121;-73
2023/08/23 10:24:45;;;;;;;5.07;1.98;;;;;;;25.84;100.00;100665.88;5009650;28;20030;-73
2023/08/23 10:27:33;;;;;;;5.30;2.33;;;;;;;26.01;100.00;100657.88;5009840;28;20038;-73
2023/08/23 10:30:24;;;;;;;5.30;1.67;;;;;;;26.14;100.00;100675.47;5023370;28;20049;-73
2023/08/23 10:33:11;;;;;;;3.58;1.60;;;;;;;26.29;100.00;100680.00;5011798;28;20065;-73
2023/08/23 10:35:56;;;;;;;3.67;1.48;;;;;;;26.44;100.00;100681.75;5008250;28;20036;-73
2023/08/23 10:38:42;;;;;;;5.35;1.33;;;;;;;26.57;100.00;100667.19;5036299;28;20042;-73
2023/08/23 10:41:28;;;;;;;3.85;1.50;;;;;;;26.69;100.00;100663.97;5023378;28;20034;-73
2023/08/23 10:44:15;;;;;;;5.55;1.30;;;;;;;26.84;100.00;100682.75;5023294;28;20056;-73
2023/08/23 10:47:00;;;;;;;4.47;1.50;;;;;;;26.98;100.00;100686.88;5035815;28;20060;-73
2023/08/23 10:49:46;;;;;;;4.85;1.40;;;;;;;27.05;100.00;100684.03;5003686;28;20048;-73
2023/08/23 10:52:32;;;;;;;3.35;1.20;;;;;;;27.17;100.00;100678.00;5009114;28;20107;-73
2023/08/23 10:55:18;;;;;;;3.80;1.58;;;;;;;27.22;100.00;100674.75;5035921;28;20037;-73
2023/08/23 10:58:04;;;;;;;4.57;1.70;;;;;;;27.28;100.00;100672.34;5037250;28;20040;-73
2023/08/23 11:00:53;;;;;;;4.90;1.52;;;;;;;27.27;100.00;100674.34;5003008;28;20038;-73
2023/08/23 11:03:38;;;;;;;3.45;1.70;;;;;;;27.29;100.00;100663.34;5016577;28;20042;-73
2023/08/23 11:06:24;;;;;;;4.28;1.30;;;;;;;27.28;100.00;100666.63;5032216;28;21038;-73
2023/08/23 11:09:10;;;;;;;8.68;1.65;;;;;;;27.32;100.00;100673.13;5023572;28;20128;-73
2023/08/23 11:11:56;;;;;;;4.70;1.40;;;;;;;27.33;100.00;100657.66;4992264;28;20034;-73
2023/08/23 11:14:42;;;;;;;6.57;1.30;;;;;;;27.41;100.00;100650.72;5019788;28;20405;-73
2023/08/23 11:17:28;;;;;;;4.13;1.33;;;;;;;27.40;100.00;100651.97;5023074;28;20037;-73
2023/08/23 11:20:14;;;;;;;4.25;1.30;;;;;;;27.46;100.00;100649.53;5023035;28;20038;-73
2023/08/23 11:22:59;;;;;;;2.97;1.30;;;;;;;27.54;100.00;100648.31;5009238;28;20516;-73
2023/08/23 11:25:45;;;;;;;5.68;1.80;;;;;;;27.64;100.00;100633.25;5008383;28;20037;-73
2023/08/23 11:28:31;;;;;;;6.30;1.38;;;;;;;27.72;100.00;100642.59;5022884;28;20203;-73
2023/08/23 11:31:17;;;;;;;4.32;1.40;;;;;;;27.80;100.00;100630.81;5022854;28;20528;-73
2023/08/23 11:34:07;;;;;;;4.53;1.45;;;;;;;27.94;100.00;100617.72;5009281;28;20072;-73
2023/08/23 11:36:53;;;;;;;6.07;1.75;;;;;;;28.00;100.00;100616.91;5022005;28;20041;-73
2023/08/23 11:39:39;;;;;;;4.00;1.45;;;;;;;28.09;100.00;100619.34;5034655;28;20034;-73
2023/08/23 11:42:25;;;;;;;3.45;1.60;;;;;;;28.16;100.00;100619.31;5022132;28;20034;-73
2023/08/23 11:45:11;;;;;;;4.75;1.70;;;;;;;28.20;100.00;100627.88;5022628;28;20040;-73
2023/08/23 11:47:56;;;;;;;4.38;1.50;;;;;;;28.32;100.00;100615.19;5036486;28;20093;-73
2023/08/23 11:50:44;;;;;;;2.83;1.40;;;;;;;28.45;100.00;100613.53;5022693;28;20033;-73
2023/08/23 11:53:29;;;;;;;4.55;1.58;;;;;;;28.60;100.00;100620.81;5022190;28;20033;-73
2023/08/23 11:56:15;;;;;;;5.53;1.60;;;;;;;28.67;100.00;100625.69;5003200;28;20037;-74
2023/08/23 11:59:01;;;;;;;5.70;1.55;;;;;;;28.82;100.00;100632.94;5024778;28;20040;-73
2023/08/23 12:01:47;;;;;;;8.07;1.80;;;;;;;28.95;100.00;100630.44;5010059;28;20069;-73
2023/08/23 12:04:33;;;;;;;5.70;1.30;;;;;;;28.97;100.00;100627.97;5037976;28;20091;-74
2023/08/23 12:07:19;;;;;;;5.40;1.50;;;;;;;29.02;100.00;100633.25;5019599;28;20041;-73
2023/08/23 12:10:08;;;;;;;3.08;1.48;;;;;;;29.14;100.00;100629.94;5017885;28;20057;-73
2023/08/23 12:12:54;;;;;;;7.93;2.10;;;;;;;29.27;100.00;100623.72;5012063;28;20037;-73
2023/08/23 12:15:40;;;;;;;5.57;1.60;;;;;;;29.36;100.00;100619.16;5014042;28;20380;-74
2023/08/23 12:18:25;;;;;;;4.32;1.50;;;;;;;29.38;100.00;100628.13;5043405;28;20042;-73
2023/08/23 12:21:12;;;;;;;6.70;1.98;;;;;;;29.45;100.00;100618.69;5035088;28;20050;-73
2023/08/23 12:23:57;;;;;;;4.20;1.40;;;;;;;29.58;100.00;100611.19;5038971;28;20097;-73
2023/08/23 12:26:43;;;;;;;8.38;2.10;;;;;;;29.60;100.00;100605.06;5039523;28;20026;-73
2023/08/23 12:29:29;;;;;;;7.10;1.90;;;;;;;29.72;100.00;100612.31;5025084;28;20073;-73
2023/08/23 12:32:15;;;;;;;5.10;1.83;;;;;;;29.76;100.00;100611.06;5025511;28;20084;-73
2023/08/23 12:35:04;;;;;;;5.68;1.80;;;;;;;29.71;100.00;100607.84;5005924;28;20030;-73
2023/08/23 12:37:49;;;;;;;3.67;1.92;;;;;;;29.71;100.00;100613.56;5022606;28;20045;-73
2023/08/23 12:40:35;;;;;;;5.63;2.00;;;;;;;29.64;100.00;100613.63;5009604;28;20030;-74
2023/08/23 12:43:21;;;;;;;4.05;1.58;;;;;;;29.63;100.00;100609.97;5025286;28;20132;-73